createdAt,value
2022-12-18T00:02:03.166Z,71.20
2022-12-18T00:04:34.360Z,71.09
2022-12-18T00:07:04.957Z,70.51
2022-12-18T00:09:39.853Z,70.54
2022-12-18T00:14:49.591Z,70.25
2022-12-18T00:17:19.149Z,70.23
2022-12-18T00:19:49.921Z,70.13
2022-12-18T00:22:23.636Z,70.13
2022-12-18T00:24:52.706Z,69.94
2022-12-18T00:27:23.419Z,69.36
2022-12-18T00:29:54.086Z,68.70
2022-12-18T00:32:24.649Z,69.19
2022-12-18T00:34:55.286Z,69.40
2022-12-18T00:37:25.927Z,69.29
2022-12-18T00:39:56.592Z,69.63
2022-12-18T00:42:44.935Z,69.32
2022-12-18T00:45:16.027Z,69.14
2022-12-18T00:47:47.646Z,69.13
2022-12-18T00:50:18.594Z,69.31
2022-12-18T00:52:49.583Z,69.41
2022-12-18T00:55:20.421Z,69.43
2022-12-18T00:57:52.816Z,69.29
2022-12-18T01:00:24.302Z,69.53
2022-12-18T01:02:55.135Z,70.54
2022-12-18T01:05:25.748Z,71.44
2022-12-18T01:07:57.185Z,70.91
2022-12-18T01:10:28.332Z,70.53
2022-12-18T01:13:02.002Z,70.63
2022-12-18T01:15:32.628Z,70.63
2022-12-18T01:18:03.321Z,70.16
2022-12-18T01:20:36.484Z,69.65
2022-12-18T01:23:10.022Z,69.53
2022-12-18T01:25:40.722Z,69.16
2022-12-18T01:28:13.765Z,68.99
2022-12-18T01:30:45.062Z,69.00
2022-12-18T01:33:17.081Z,69.18
2022-12-18T01:35:47.705Z,69.25
2022-12-18T01:38:19.246Z,69.26
2022-12-18T01:40:50.056Z,69.26
2022-12-18T01:43:20.684Z,69.02
2022-12-18T01:45:51.431Z,69.00
2022-12-18T01:48:22.313Z,68.97
2022-12-18T01:50:52.927Z,69.26
2022-12-18T01:53:26.377Z,69.76
2022-12-18T01:55:59.707Z,69.91
2022-12-18T01:58:37.951Z,69.98
2022-12-18T02:01:09.218Z,69.58
2022-12-18T02:03:42.981Z,69.63
2022-12-18T02:06:19.112Z,69.53
2022-12-18T02:09:03.688Z,69.30
2022-12-18T02:11:46.318Z,68.97
2022-12-18T02:14:25.742Z,68.85
2022-12-18T02:17:06.406Z,68.59
2022-12-18T02:20:03.774Z,68.34
2022-12-18T02:22:47.045Z,68.14
2022-12-18T02:25:30.455Z,68.41
2022-12-18T02:28:02.295Z,68.34
2022-12-18T02:30:37.268Z,68.75
2022-12-18T02:33:11.153Z,69.17
2022-12-18T02:35:46.265Z,69.73
2022-12-18T02:38:18.309Z,69.11
2022-12-18T02:40:51.014Z,68.93
2022-12-18T02:43:21.907Z,68.50
2022-12-18T02:45:55.810Z,68.50
2022-12-18T02:48:30.093Z,68.49
2022-12-18T02:51:06.378Z,68.86
2022-12-18T02:53:42.315Z,68.97
2022-12-18T02:56:20.354Z,69.68
2022-12-18T02:58:55.900Z,70.82
2022-12-18T03:01:44.164Z,70.93
2022-12-18T03:04:22.263Z,70.23
2022-12-18T03:06:56.819Z,70.37
2022-12-18T03:09:34.495Z,70.29
2022-12-18T03:12:25.674Z,70.33
2022-12-18T03:15:02.908Z,70.57
2022-12-18T03:17:35.990Z,70.16
2022-12-18T03:20:12.225Z,70.17
2022-12-18T03:22:46.396Z,70.21
2022-12-18T03:25:19.624Z,69.89
2022-12-18T03:27:56.535Z,70.03
2022-12-18T03:30:30.197Z,69.50
2022-12-18T03:33:04.038Z,69.93
2022-12-18T03:35:39.511Z,69.60
2022-12-18T03:38:11.553Z,69.72
2022-12-18T03:40:53.410Z,69.71
2022-12-18T03:43:37.869Z,69.67
2022-12-18T03:46:17.699Z,69.60
2022-12-18T03:49:01.104Z,69.94
2022-12-18T03:51:41.894Z,70.88
2022-12-18T03:54:14.416Z,70.75
2022-12-18T03:56:53.229Z,71.51
2022-12-18T03:59:27.026Z,71.55
2022-12-18T04:02:01.785Z,71.27
2022-12-18T04:04:36.321Z,70.55
2022-12-18T04:07:08.963Z,70.37
2022-12-18T04:09:43.932Z,70.11
2022-12-18T04:12:14.650Z,70.29
2022-12-18T04:14:45.945Z,69.61
2022-12-18T04:17:17.733Z,68.90
2022-12-18T04:19:48.828Z,68.65
2022-12-18T04:22:19.970Z,68.63
2022-12-18T04:24:52.206Z,68.33
2022-12-18T04:27:29.346Z,68.05
2022-12-18T04:30:01.903Z,68.21
2022-12-18T04:32:35.148Z,68.16
2022-12-18T04:35:11.530Z,68.29
2022-12-18T04:37:42.946Z,68.38
2022-12-18T04:40:15.642Z,68.08
2022-12-18T04:42:46.351Z,68.22
2022-12-18T04:45:17.135Z,68.51
2022-12-18T04:47:47.914Z,68.86
2022-12-18T04:50:18.684Z,68.54
2022-12-18T04:52:49.697Z,68.48
2022-12-18T04:55:20.362Z,68.66
2022-12-18T04:57:51.657Z,68.67
2022-12-18T05:00:22.986Z,68.20
2022-12-18T05:02:53.837Z,68.38
2022-12-18T05:05:25.438Z,67.96
2022-12-18T05:07:56.169Z,67.95
2022-12-18T05:10:26.908Z,67.91
2022-12-18T05:13:00.822Z,67.43
2022-12-18T05:15:33.522Z,67.22
2022-12-18T05:18:04.895Z,66.88
2022-12-18T05:20:35.614Z,66.80
2022-12-18T05:23:06.406Z,67.39
2022-12-18T05:25:37.116Z,67.13
2022-12-18T05:28:08.164Z,67.33
2022-12-18T05:30:38.887Z,67.18
2022-12-18T05:33:09.563Z,67.27
2022-12-18T05:35:40.194Z,68.05
2022-12-18T05:38:10.873Z,68.16
2022-12-18T05:40:45.468Z,67.87
2022-12-18T05:43:21.006Z,68.03
2022-12-18T05:45:53.019Z,68.63
2022-12-18T05:48:24.479Z,69.16
2022-12-18T05:50:55.284Z,68.85
2022-12-18T05:53:25.907Z,69.06
2022-12-18T05:55:56.475Z,68.45
2022-12-18T05:58:27.207Z,68.51
2022-12-18T06:00:58.292Z,68.91
2022-12-18T06:03:33.705Z,69.05
2022-12-18T06:06:04.847Z,68.93
2022-12-18T06:08:35.503Z,69.01
2022-12-18T06:11:06.508Z,68.62
2022-12-18T06:13:37.572Z,72.56
2022-12-18T06:16:10.040Z,89.11
2022-12-18T06:18:43.871Z,78.92
2022-12-18T06:21:14.675Z,71.82
2022-12-18T06:23:45.456Z,69.24
2022-12-18T06:26:16.706Z,67.94
2022-12-18T06:28:47.581Z,67.26
2022-12-18T06:31:18.302Z,66.46
2022-12-18T06:33:49.062Z,66.67
2022-12-18T06:36:20.665Z,66.18
2022-12-18T06:38:51.663Z,66.15
2022-12-18T06:41:24.062Z,66.26
2022-12-18T06:43:59.329Z,66.39
2022-12-18T06:46:30.564Z,66.48
2022-12-18T06:49:01.403Z,66.28
2022-12-18T06:51:32.085Z,66.44
2022-12-18T06:54:03.107Z,66.67
2022-12-18T06:56:34.474Z,67.07
2022-12-18T06:59:05.273Z,67.18
2022-12-18T07:01:36.050Z,67.69
2022-12-18T07:04:07.138Z,67.81
2022-12-18T07:06:37.960Z,68.16
2022-12-18T07:09:08.842Z,68.17
2022-12-18T07:11:39.477Z,67.67
2022-12-18T07:14:10.179Z,67.39
2022-12-18T07:16:41.881Z,67.03
2022-12-18T07:19:12.665Z,67.27
2022-12-18T07:21:43.387Z,67.16
2022-12-18T07:24:15.339Z,67.38
2022-12-18T07:26:47.598Z,67.59
2022-12-18T07:29:18.475Z,70.24
2022-12-18T07:31:49.290Z,70.34
2022-12-18T07:34:20.202Z,69.80
2022-12-18T07:36:50.924Z,67.97
2022-12-18T07:39:21.706Z,67.20
2022-12-18T07:42:06.401Z,66.98
2022-12-18T07:44:38.205Z,66.32
2022-12-18T07:47:11.957Z,65.69
2022-12-18T07:49:43.067Z,65.57
2022-12-18T07:52:14.394Z,65.36
2022-12-18T07:54:45.054Z,65.38
2022-12-18T07:57:49.040Z,65.61
2022-12-18T08:00:15.198Z,65.83
2022-12-18T08:02:45.895Z,65.56
2022-12-18T08:05:17.193Z,65.19
2022-12-18T08:07:47.840Z,64.56
2022-12-18T08:10:19.066Z,64.75
2022-12-18T08:12:53.131Z,64.52
2022-12-18T08:15:23.868Z,64.41
2022-12-18T08:17:54.565Z,64.10
2022-12-18T08:20:25.214Z,63.91
2022-12-18T08:22:55.923Z,64.01
2022-12-18T08:25:26.631Z,64.10
2022-12-18T08:27:58.414Z,64.19
2022-12-18T08:30:29.251Z,64.19
2022-12-18T08:33:00.298Z,63.96
2022-12-18T08:35:36.341Z,63.77
2022-12-18T08:38:08.831Z,63.64
2022-12-18T08:40:39.462Z,63.79
2022-12-18T08:43:29.856Z,63.41
2022-12-18T08:46:00.473Z,62.75
2022-12-18T08:48:31.401Z,62.89
2022-12-18T08:51:02.900Z,63.22
2022-12-18T08:53:35.786Z,62.60
2022-12-18T08:56:08.137Z,62.76
2022-12-18T08:58:38.733Z,62.35
2022-12-18T09:01:11.968Z,62.03
2022-12-18T09:03:43.890Z,61.90
2022-12-18T09:06:17.736Z,61.73
2022-12-18T09:08:48.635Z,61.52
2022-12-18T09:11:23.465Z,60.93
2022-12-18T09:13:55.726Z,60.87
2022-12-18T09:16:32.394Z,60.22
2022-12-18T09:19:04.058Z,60.26
2022-12-18T09:21:37.514Z,60.99
2022-12-18T09:24:14.041Z,60.87
2022-12-18T09:26:47.343Z,60.66
2022-12-18T09:29:18.904Z,60.84
2022-12-18T09:31:50.549Z,60.63
2022-12-18T09:34:22.825Z,61.18
2022-12-18T09:36:53.979Z,60.97
2022-12-18T09:39:24.947Z,61.31
2022-12-18T09:41:58.113Z,61.64
2022-12-18T09:44:31.948Z,61.62
2022-12-18T09:47:11.702Z,61.63
2022-12-18T09:49:45.304Z,61.93
2022-12-18T09:52:21.887Z,61.85
2022-12-18T09:54:57.514Z,62.02
2022-12-18T09:57:28.820Z,62.22
2022-12-18T10:00:05.577Z,62.06
2022-12-18T10:03:03.060Z,62.91
2022-12-18T10:05:43.006Z,63.23
2022-12-18T10:08:20.240Z,63.23
2022-12-18T10:10:55.277Z,63.30
2022-12-18T10:13:33.697Z,63.04
2022-12-18T10:16:11.795Z,62.42
2022-12-18T10:18:59.821Z,62.05
2022-12-18T10:21:38.257Z,61.99
2022-12-18T10:24:20.902Z,61.75
2022-12-18T10:26:51.792Z,61.39
2022-12-18T10:29:23.439Z,61.05
2022-12-18T10:31:54.282Z,61.05
2022-12-18T10:34:25.868Z,60.93
2022-12-18T10:36:56.770Z,60.95
2022-12-18T10:39:28.203Z,61.03
2022-12-18T10:42:14.692Z,60.83
2022-12-18T10:44:45.359Z,60.78
2022-12-18T10:47:20.313Z,60.69
2022-12-18T10:49:55.947Z,60.56
2022-12-18T10:52:29.379Z,60.65
2022-12-18T10:55:04.302Z,60.29
2022-12-18T10:57:38.211Z,60.36
2022-12-18T11:00:32.760Z,60.69
2022-12-18T11:03:03.696Z,60.97
2022-12-18T11:05:37.909Z,61.08
2022-12-18T11:08:22.408Z,60.63
2022-12-18T11:10:53.153Z,60.60
2022-12-18T11:13:25.158Z,60.71
2022-12-18T11:15:56.148Z,60.74
2022-12-18T11:18:30.881Z,60.58
2022-12-18T11:21:08.299Z,60.26
2022-12-18T11:23:48.387Z,60.36
2022-12-18T11:26:19.422Z,60.45
2022-12-18T11:28:53.533Z,60.51
2022-12-18T11:31:29.676Z,60.41
2022-12-18T11:34:28.813Z,60.24
2022-12-18T11:37:03.111Z,60.29
2022-12-18T11:39:36.196Z,60.23
2022-12-18T11:42:12.800Z,60.07
2022-12-18T11:44:49.651Z,60.24
2022-12-18T11:47:35.525Z,60.42
2022-12-18T11:50:15.106Z,60.74
2022-12-18T11:52:46.117Z,60.74
2022-12-18T11:55:26.145Z,60.88
2022-12-18T11:58:05.427Z,60.47
2022-12-18T12:00:38.411Z,60.86
2022-12-18T12:03:42.090Z,60.80
2022-12-18T12:06:21.688Z,60.59
2022-12-18T12:09:00.543Z,60.90
2022-12-18T12:11:43.306Z,61.10
2022-12-18T12:14:44.524Z,60.87
2022-12-18T12:17:25.121Z,60.82
2022-12-18T12:20:04.000Z,61.25
2022-12-18T12:22:45.030Z,61.11
2022-12-18T12:25:31.651Z,60.98
2022-12-18T12:28:21.303Z,61.13
2022-12-18T12:31:06.914Z,61.20
2022-12-18T12:33:49.336Z,61.15
2022-12-18T12:36:28.532Z,61.36
2022-12-18T12:39:03.736Z,61.56
2022-12-18T12:41:54.646Z,61.47
2022-12-18T12:44:30.459Z,61.45
2022-12-18T12:47:09.293Z,61.66
2022-12-18T12:49:41.900Z,61.68
2022-12-18T12:52:21.005Z,61.94
2022-12-18T12:54:53.250Z,62.13
2022-12-18T12:57:33.413Z,62.03
2022-12-18T13:00:09.042Z,62.07
2022-12-18T13:02:46.835Z,62.25
2022-12-18T13:05:26.730Z,62.45
2022-12-18T13:07:59.282Z,62.34
2022-12-18T13:10:38.940Z,62.46
2022-12-18T13:13:13.424Z,62.85
2022-12-18T13:15:47.480Z,62.68
2022-12-18T13:18:23.558Z,62.95
2022-12-18T13:21:10.222Z,62.89
2022-12-18T13:23:45.747Z,62.90
2022-12-18T13:26:38.268Z,63.32
2022-12-18T13:29:08.958Z,63.00
2022-12-18T13:32:24.147Z,63.37
2022-12-18T13:35:26.868Z,63.30
2022-12-18T13:37:58.745Z,63.48
2022-12-18T13:41:02.023Z,63.69
2022-12-18T13:43:38.327Z,63.82
2022-12-18T13:46:30.525Z,63.82
2022-12-18T13:49:05.476Z,64.11
2022-12-18T13:51:41.370Z,63.84
2022-12-18T13:54:24.163Z,63.83
2022-12-18T13:56:55.156Z,63.79
2022-12-18T13:59:27.314Z,64.18
2022-12-18T14:02:00.214Z,63.99
2022-12-18T14:04:35.071Z,64.06
2022-12-18T14:07:09.635Z,64.26
2022-12-18T14:09:44.857Z,64.25
2022-12-18T14:12:40.652Z,64.38
2022-12-18T14:15:28.487Z,64.60
2022-12-18T14:18:02.005Z,64.91
2022-12-18T14:20:35.173Z,64.95
2022-12-18T14:23:05.838Z,65.01
2022-12-18T14:25:36.810Z,65.41
2022-12-18T14:28:17.873Z,65.47
2022-12-18T14:30:49.858Z,65.77
2022-12-18T14:33:22.885Z,65.55
2022-12-18T14:36:04.763Z,65.27
2022-12-18T14:38:37.797Z,65.66
2022-12-18T14:41:12.550Z,65.84
2022-12-18T14:43:45.545Z,66.02
2022-12-18T14:46:36.333Z,66.18
2022-12-18T14:49:20.767Z,66.52
2022-12-18T14:51:53.966Z,66.57
2022-12-18T14:54:26.358Z,67.02
2022-12-18T14:57:04.551Z,66.73
2022-12-18T14:59:35.698Z,67.18
2022-12-18T15:02:16.219Z,67.27
2022-12-18T15:04:47.516Z,67.42
2022-12-18T15:07:21.082Z,67.55
2022-12-18T15:10:12.937Z,67.91
2022-12-18T15:12:45.855Z,67.55
2022-12-18T15:15:49.259Z,68.07
2022-12-18T15:18:23.989Z,67.87
2022-12-18T15:20:56.961Z,68.12
2022-12-18T15:23:30.494Z,68.26
2022-12-18T15:26:02.953Z,68.40
2022-12-18T15:28:39.058Z,68.32
2022-12-18T15:31:26.333Z,68.55
2022-12-18T15:34:15.461Z,68.55
2022-12-18T15:36:46.380Z,68.54
2022-12-18T15:39:17.210Z,68.78
2022-12-18T15:42:02.492Z,69.29
2022-12-18T15:44:33.655Z,68.93
2022-12-18T15:47:04.580Z,69.09
2022-12-18T15:49:35.302Z,68.96
2022-12-18T15:52:06.630Z,68.97
2022-12-18T15:54:55.144Z,69.22
2022-12-18T15:57:25.878Z,69.06
2022-12-18T15:59:59.399Z,69.22
2022-12-18T16:02:30.806Z,69.61
2022-12-18T16:05:01.564Z,69.52
2022-12-18T16:07:32.245Z,69.50
2022-12-18T16:10:03.342Z,69.75
2022-12-18T16:12:34.633Z,69.66
2022-12-18T16:15:08.893Z,69.63
2022-12-18T16:17:39.991Z,69.60
2022-12-18T16:20:17.005Z,69.51
2022-12-18T16:22:48.794Z,69.90
2022-12-18T16:25:26.339Z,69.87
2022-12-18T16:27:57.742Z,69.90
2022-12-18T16:30:37.892Z,70.12
2022-12-18T16:33:10.640Z,70.12
2022-12-18T16:35:41.670Z,70.25
2022-12-18T16:38:13.508Z,69.87
2022-12-18T16:40:58.112Z,70.07
2022-12-18T16:43:28.950Z,70.39
2022-12-18T16:46:02.547Z,70.23
2022-12-18T16:48:35.559Z,70.35
2022-12-18T16:51:07.905Z,70.25
2022-12-18T16:53:38.851Z,70.09
2022-12-18T16:56:10.329Z,70.29
2022-12-18T16:58:41.061Z,70.27
2022-12-18T17:01:13.686Z,70.18
2022-12-18T17:03:44.984Z,70.42
2022-12-18T17:06:17.332Z,70.38
2022-12-18T17:08:50.047Z,70.11
2022-12-18T17:11:21.470Z,70.19
2022-12-18T17:13:52.320Z,70.38
2022-12-18T17:16:23.775Z,70.48
2022-12-18T17:18:55.363Z,70.46
2022-12-18T17:21:26.453Z,70.81
2022-12-18T17:24:02.474Z,70.60
2022-12-18T17:26:33.443Z,70.33
2022-12-18T17:29:04.505Z,70.45
2022-12-18T17:31:35.925Z,70.30
2022-12-18T17:34:09.372Z,70.41
2022-12-18T17:36:41.643Z,70.40
2022-12-18T17:39:20.659Z,70.47
2022-12-18T17:41:52.321Z,70.35
2022-12-18T17:44:23.286Z,70.60
2022-12-18T17:46:54.480Z,70.42
2022-12-18T17:49:26.244Z,70.50
2022-12-18T17:51:57.826Z,70.59
2022-12-18T17:54:29.036Z,70.19
2022-12-18T17:57:00.228Z,70.24
2022-12-18T17:59:31.190Z,70.18
2022-12-18T18:02:02.458Z,70.30
2022-12-18T18:04:33.779Z,70.27
2022-12-18T18:07:04.623Z,70.55
2022-12-18T18:09:35.383Z,70.27
2022-12-18T18:12:24.392Z,70.33
2022-12-18T18:14:55.395Z,70.35
2022-12-18T18:17:26.415Z,70.30
2022-12-18T18:19:57.031Z,70.17
2022-12-18T18:22:27.967Z,69.90
2022-12-18T18:24:59.459Z,69.78
2022-12-18T18:27:38.241Z,69.89
2022-12-18T18:30:12.727Z,69.90
2022-12-18T18:32:43.392Z,69.88
2022-12-18T18:35:37.488Z,69.81
2022-12-18T18:38:05.453Z,69.99
2022-12-18T18:40:36.296Z,69.96
2022-12-18T18:43:06.978Z,69.77
2022-12-18T18:45:37.993Z,69.79
2022-12-18T18:48:10.486Z,69.46
2022-12-18T18:50:44.004Z,69.67
2022-12-18T18:53:14.743Z,69.49
2022-12-18T18:55:45.334Z,69.39
2022-12-18T18:58:16.022Z,69.32
2022-12-18T19:00:47.006Z,69.48
2022-12-18T19:03:21.230Z,69.43
2022-12-18T19:05:56.002Z,69.50
2022-12-18T19:08:27.562Z,69.30
2022-12-18T19:11:00.599Z,68.75
2022-12-18T19:13:34.405Z,68.53
2022-12-18T19:16:09.297Z,68.85
2022-12-18T19:18:41.216Z,68.86
2022-12-18T19:21:13.755Z,68.98
2022-12-18T19:23:44.587Z,68.86
2022-12-18T19:26:31.163Z,68.93
2022-12-18T19:29:05.049Z,68.92
2022-12-18T19:31:37.185Z,69.04
2022-12-18T19:34:09.030Z,68.79
2022-12-18T19:36:41.522Z,68.48
2022-12-18T19:39:15.585Z,68.46
2022-12-18T19:41:47.089Z,68.64
2022-12-18T19:44:18.807Z,68.46
2022-12-18T19:46:52.627Z,68.50
2022-12-18T19:49:26.354Z,68.68
2022-12-18T19:51:57.111Z,68.38
2022-12-18T19:54:27.904Z,68.54
2022-12-18T19:56:58.600Z,68.40
2022-12-18T19:59:29.294Z,68.46
2022-12-18T20:02:00.215Z,68.48
2022-12-18T20:04:32.073Z,67.96
2022-12-18T20:07:03.315Z,68.20
2022-12-18T20:09:34.386Z,68.07
2022-12-18T20:12:06.106Z,68.18
2022-12-18T20:14:36.585Z,68.13
2022-12-18T20:17:07.552Z,68.11
2022-12-18T20:19:39.181Z,68.09
2022-12-18T20:22:10.897Z,68.14
2022-12-18T20:24:41.904Z,67.89
2022-12-18T20:27:17.186Z,67.50
2022-12-18T20:29:50.171Z,67.66
2022-12-18T20:32:20.953Z,67.27
2022-12-18T20:34:51.885Z,67.28
2022-12-18T20:37:24.613Z,67.24
2022-12-18T20:39:55.673Z,67.14
2022-12-18T20:42:28.110Z,67.34
2022-12-18T20:45:00.312Z,67.15
2022-12-18T20:47:31.044Z,67.25
2022-12-18T20:50:02.013Z,66.76
2022-12-18T20:52:32.623Z,67.02
2022-12-18T20:55:07.454Z,66.79
2022-12-18T20:57:39.012Z,66.30
2022-12-18T21:00:12.366Z,66.36
2022-12-18T21:02:45.390Z,66.17
2022-12-18T21:05:16.355Z,66.30
2022-12-18T21:07:47.287Z,66.02
2022-12-18T21:10:18.127Z,65.75
2022-12-18T21:12:58.743Z,65.91
2022-12-18T21:15:33.990Z,65.57
2022-12-18T21:18:04.771Z,65.83
2022-12-18T21:20:35.762Z,65.17
2022-12-18T21:23:16.583Z,65.27
2022-12-18T21:25:49.528Z,65.32
2022-12-18T21:28:26.729Z,65.23
2022-12-18T21:30:57.965Z,64.55
2022-12-18T21:33:29.200Z,64.73
2022-12-18T21:35:59.968Z,65.03
2022-12-18T21:38:32.028Z,64.73
2022-12-18T21:41:06.301Z,64.95
2022-12-18T21:44:10.072Z,65.16
2022-12-18T21:46:40.353Z,65.05
2022-12-18T21:49:14.603Z,65.55
2022-12-18T21:51:46.126Z,65.32
2022-12-18T21:54:16.817Z,64.93
2022-12-18T21:56:53.025Z,64.90
2022-12-18T21:59:25.649Z,65.03
2022-12-18T22:01:58.321Z,64.77
2022-12-18T22:04:29.794Z,64.62
2022-12-18T22:07:05.767Z,64.92
2022-12-18T22:09:36.502Z,65.20
2022-12-18T22:12:08.934Z,65.05
2022-12-18T22:14:39.807Z,65.49
2022-12-18T22:17:11.159Z,65.73
2022-12-18T22:19:43.214Z,65.64
2022-12-18T22:22:14.374Z,65.25
2022-12-18T22:24:45.034Z,65.44
2022-12-18T22:27:15.800Z,65.70
2022-12-18T22:30:05.044Z,65.73
2022-12-18T22:32:37.318Z,65.65
2022-12-18T22:35:15.634Z,66.22
2022-12-18T22:37:48.355Z,65.78
2022-12-18T22:40:25.306Z,66.46
2022-12-18T22:42:57.228Z,66.48
2022-12-18T22:45:29.199Z,66.51
2022-12-18T22:48:00.048Z,66.39
2022-12-18T22:50:33.753Z,66.56
2022-12-18T22:53:04.580Z,66.43
2022-12-18T22:55:35.279Z,66.62
2022-12-18T22:58:06.538Z,66.30
2022-12-18T23:00:37.346Z,66.43
2022-12-18T23:03:09.750Z,66.62
2022-12-18T23:05:40.727Z,67.06
2022-12-18T23:08:11.351Z,66.53
2022-12-18T23:10:42.070Z,67.10
2022-12-18T23:13:12.781Z,67.04
2022-12-18T23:15:45.400Z,66.88
2022-12-18T23:18:16.129Z,66.94
2022-12-18T23:20:46.819Z,67.00
2022-12-18T23:23:18.485Z,67.04
2022-12-18T23:25:49.255Z,66.97
2022-12-18T23:28:20.113Z,67.25
2022-12-18T23:30:50.743Z,67.09
2022-12-18T23:33:21.584Z,66.93
2022-12-18T23:35:52.218Z,67.03
2022-12-18T23:38:22.849Z,67.14
2022-12-18T23:40:56.324Z,67.24
2022-12-18T23:43:28.159Z,67.60
2022-12-18T23:45:58.818Z,67.72
2022-12-18T23:48:29.542Z,67.38
2022-12-18T23:51:05.114Z,67.46
2022-12-18T23:53:36.369Z,67.86
2022-12-18T23:56:10.895Z,67.76
2022-12-18T23:58:43.012Z,67.73
